sensor_id;sensor_type;location;lat;lon;timestamp;P1;durP1;ratioP1;P2;durP2;ratioP2
31378;SDS011;61664;48.112;11.662;2023-07-08T00:01:18;3.88;;;3.58;;
31378;SDS011;61664;48.112;11.662;2023-07-08T00:03:47;3.58;;;3.28;;
31378;SDS011;61664;48.112;11.662;2023-07-08T00:06:18;3.42;;;3.13;;
31378;SDS011;61664;48.112;11.662;2023-07-08T00:08:48;3.90;;;3.60;;
31378;SDS011;61664;48.112;11.662;2023-07-08T00:11:15;3.55;;;3.20;;
31378;SDS011;61664;48.112;11.662;2023-07-08T00:13:43;4.20;;;3.65;;
31378;SDS011;61664;48.112;11.662;2023-07-08T00:16:11;5.63;;;3.50;;
31378;SDS011;61664;48.112;11.662;2023-07-08T00:21:12;3.15;;;2.95;;
31378;SDS011;61664;48.112;11.662;2023-07-08T00:23:45;3.15;;;2.95;;
31378;SDS011;61664;48.112;11.662;2023-07-08T00:28:52;3.75;;;3.35;;
31378;SDS011;61664;48.112;11.662;2023-07-08T00:31:20;3.63;;;3.33;;
31378;SDS011;61664;48.112;11.662;2023-07-08T00:33:51;3.58;;;3.28;;
31378;SDS011;61664;48.112;11.662;2023-07-08T00:36:24;3.95;;;3.60;;
31378;SDS011;61664;48.112;11.662;2023-07-08T00:38:54;5.05;;;3.90;;
31378;SDS011;61664;48.112;11.662;2023-07-08T00:41:22;4.05;;;3.15;;
31378;SDS011;61664;48.112;11.662;2023-07-08T00:43:58;3.70;;;3.40;;
31378;SDS011;61664;48.112;11.662;2023-07-08T00:51:38;4.53;;;4.15;;
31378;SDS011;61664;48.112;11.662;2023-07-08T00:54:12;4.05;;;3.65;;
31378;SDS011;61664;48.112;11.662;2023-07-08T00:56:43;4.18;;;3.78;;
31378;SDS011;61664;48.112;11.662;2023-07-08T00:59:21;4.53;;;4.13;;
31378;SDS011;61664;48.112;11.662;2023-07-08T01:01:59;3.70;;;3.40;;
31378;SDS011;61664;48.112;11.662;2023-07-08T01:04:32;4.93;;;2.95;;
31378;SDS011;61664;48.112;11.662;2023-07-08T01:07:08;3.92;;;3.45;;
31378;SDS011;61664;48.112;11.662;2023-07-08T01:09:37;4.05;;;3.60;;
31378;SDS011;61664;48.112;11.662;2023-07-08T01:12:15;4.70;;;4.22;;
31378;SDS011;61664;48.112;11.662;2023-07-08T01:14:46;4.07;;;3.65;;
31378;SDS011;61664;48.112;11.662;2023-07-08T01:17:14;3.80;;;3.47;;
31378;SDS011;61664;48.112;11.662;2023-07-08T01:19:42;6.88;;;4.05;;
31378;SDS011;61664;48.112;11.662;2023-07-08T01:22:10;4.38;;;3.97;;
31378;SDS011;61664;48.112;11.662;2023-07-08T01:24:38;3.85;;;3.53;;
31378;SDS011;61664;48.112;11.662;2023-07-08T01:27:12;5.50;;;4.22;;
31378;SDS011;61664;48.112;11.662;2023-07-08T01:29:43;4.78;;;4.25;;
31378;SDS011;61664;48.112;11.662;2023-07-08T01:32:14;4.25;;;3.85;;
31378;SDS011;61664;48.112;11.662;2023-07-08T01:34:45;3.70;;;3.40;;
31378;SDS011;61664;48.112;11.662;2023-07-08T01:37:31;4.30;;;3.90;;
31378;SDS011;61664;48.112;11.662;2023-07-08T01:42:58;3.97;;;3.60;;
31378;SDS011;61664;48.112;11.662;2023-07-08T01:45:27;4.38;;;3.97;;
31378;SDS011;61664;48.112;11.662;2023-07-08T01:48:12;3.92;;;3.63;;
31378;SDS011;61664;48.112;11.662;2023-07-08T01:50:59;3.80;;;3.50;;
31378;SDS011;61664;48.112;11.662;2023-07-08T01:53:35;5.47;;;4.30;;
31378;SDS011;61664;48.112;11.662;2023-07-08T01:56:08;3.88;;;3.58;;
31378;SDS011;61664;48.112;11.662;2023-07-08T01:58:38;5.38;;;3.90;;
31378;SDS011;61664;48.112;11.662;2023-07-08T02:01:05;4.75;;;4.03;;
31378;SDS011;61664;48.112;11.662;2023-07-08T02:03:33;4.63;;;4.00;;
31378;SDS011;61664;48.112;11.662;2023-07-08T02:06:01;3.83;;;3.45;;
31378;SDS011;61664;48.112;11.662;2023-07-08T02:08:29;4.15;;;3.78;;
31378;SDS011;61664;48.112;11.662;2023-07-08T02:10:57;3.80;;;3.50;;
31378;SDS011;61664;48.112;11.662;2023-07-08T02:13:25;4.15;;;3.72;;
31378;SDS011;61664;48.112;11.662;2023-07-08T02:15:52;4.25;;;3.83;;
31378;SDS011;61664;48.112;11.662;2023-07-08T02:18:20;3.88;;;3.50;;
31378;SDS011;61664;48.112;11.662;2023-07-08T02:20:47;3.72;;;3.42;;
31378;SDS011;61664;48.112;11.662;2023-07-08T02:23:14;3.63;;;3.33;;
31378;SDS011;61664;48.112;11.662;2023-07-08T02:25:49;3.95;;;3.65;;
31378;SDS011;61664;48.112;11.662;2023-07-08T02:28:20;3.97;;;3.53;;
31378;SDS011;61664;48.112;11.662;2023-07-08T02:30:47;3.92;;;3.58;;
31378;SDS011;61664;48.112;11.662;2023-07-08T02:33:15;4.07;;;3.67;;
31378;SDS011;61664;48.112;11.662;2023-07-08T02:35:44;3.92;;;3.60;;
31378;SDS011;61664;48.112;11.662;2023-07-08T02:38:12;4.25;;;3.85;;
31378;SDS011;61664;48.112;11.662;2023-07-08T02:40:39;4.85;;;4.40;;
31378;SDS011;61664;48.112;11.662;2023-07-08T02:43:06;4.28;;;3.88;;
31378;SDS011;61664;48.112;11.662;2023-07-08T02:45:33;4.45;;;3.97;;
31378;SDS011;61664;48.112;11.662;2023-07-08T02:48:00;4.15;;;3.65;;
31378;SDS011;61664;48.112;11.662;2023-07-08T02:50:27;3.85;;;3.55;;
31378;SDS011;61664;48.112;11.662;2023-07-08T02:52:53;3.60;;;3.33;;
31378;SDS011;61664;48.112;11.662;2023-07-08T02:55:20;4.07;;;3.78;;
31378;SDS011;61664;48.112;11.662;2023-07-08T02:57:47;4.05;;;3.53;;
31378;SDS011;61664;48.112;11.662;2023-07-08T03:00:15;6.82;;;3.83;;
31378;SDS011;61664;48.112;11.662;2023-07-08T03:02:42;4.75;;;3.75;;
31378;SDS011;61664;48.112;11.662;2023-07-08T03:05:09;4.50;;;4.10;;
31378;SDS011;61664;48.112;11.662;2023-07-08T03:07:36;4.05;;;3.70;;
31378;SDS011;61664;48.112;11.662;2023-07-08T03:10:03;3.83;;;3.53;;
31378;SDS011;61664;48.112;11.662;2023-07-08T03:12:30;4.82;;;3.90;;
31378;SDS011;61664;48.112;11.662;2023-07-08T03:14:57;3.88;;;3.58;;
31378;SDS011;61664;48.112;11.662;2023-07-08T03:17:24;6.80;;;4.30;;
31378;SDS011;61664;48.112;11.662;2023-07-08T03:19:51;4.95;;;4.00;;
31378;SDS011;61664;48.112;11.662;2023-07-08T03:22:17;4.18;;;3.70;;
31378;SDS011;61664;48.112;11.662;2023-07-08T03:24:44;4.22;;;3.80;;
31378;SDS011;61664;48.112;11.662;2023-07-08T03:27:13;6.10;;;4.18;;
31378;SDS011;61664;48.112;11.662;2023-07-08T03:29:41;4.25;;;3.58;;
31378;SDS011;61664;48.112;11.662;2023-07-08T03:32:12;4.18;;;3.72;;
31378;SDS011;61664;48.112;11.662;2023-07-08T03:34:39;4.95;;;3.75;;
31378;SDS011;61664;48.112;11.662;2023-07-08T03:37:06;5.00;;;4.32;;
31378;SDS011;61664;48.112;11.662;2023-07-08T03:39:35;4.40;;;4.05;;
31378;SDS011;61664;48.112;11.662;2023-07-08T03:42:05;4.05;;;3.58;;
31378;SDS011;61664;48.112;11.662;2023-07-08T03:44:32;4.38;;;3.97;;
31378;SDS011;61664;48.112;11.662;2023-07-08T03:46:59;6.75;;;3.80;;
31378;SDS011;61664;48.112;11.662;2023-07-08T03:49:26;4.72;;;4.32;;
31378;SDS011;61664;48.112;11.662;2023-07-08T03:51:53;4.15;;;3.75;;
31378;SDS011;61664;48.112;11.662;2023-07-08T03:54:22;4.43;;;3.92;;
31378;SDS011;61664;48.112;11.662;2023-07-08T03:56:51;4.28;;;3.45;;
31378;SDS011;61664;48.112;11.662;2023-07-08T03:59:19;4.55;;;4.15;;
31378;SDS011;61664;48.112;11.662;2023-07-08T04:01:46;3.90;;;3.58;;
31378;SDS011;61664;48.112;11.662;2023-07-08T04:04:14;3.72;;;3.42;;
31378;SDS011;61664;48.112;11.662;2023-07-08T04:06:42;3.78;;;3.47;;
31378;SDS011;61664;48.112;11.662;2023-07-08T04:09:11;5.05;;;3.72;;
31378;SDS011;61664;48.112;11.662;2023-07-08T04:11:38;3.47;;;3.17;;
31378;SDS011;61664;48.112;11.662;2023-07-08T04:14:05;3.95;;;3.65;;
31378;SDS011;61664;48.112;11.662;2023-07-08T04:16:57;3.90;;;3.60;;
31378;SDS011;61664;48.112;11.662;2023-07-08T04:19:25;3.33;;;3.03;;
31378;SDS011;61664;48.112;11.662;2023-07-08T04:21:53;4.13;;;3.40;;
31378;SDS011;61664;48.112;11.662;2023-07-08T04:24:20;4.15;;;3.38;;
31378;SDS011;61664;48.112;11.662;2023-07-08T04:26:47;4.13;;;3.75;;
31378;SDS011;61664;48.112;11.662;2023-07-08T04:29:16;3.50;;;3.20;;
31378;SDS011;61664;48.112;11.662;2023-07-08T04:31:46;4.80;;;3.97;;
31378;SDS011;61664;48.112;11.662;2023-07-08T04:34:14;3.95;;;3.45;;
31378;SDS011;61664;48.112;11.662;2023-07-08T04:36:42;4.90;;;4.20;;
31378;SDS011;61664;48.112;11.662;2023-07-08T04:39:10;3.83;;;3.45;;
31378;SDS011;61664;48.112;11.662;2023-07-08T04:41:39;3.90;;;3.45;;
31378;SDS011;61664;48.112;11.662;2023-07-08T04:44:08;3.78;;;3.40;;
31378;SDS011;61664;48.112;11.662;2023-07-08T04:49:21;3.67;;;3.38;;
31378;SDS011;61664;48.112;11.662;2023-07-08T04:51:50;4.22;;;3.83;;
31378;SDS011;61664;48.112;11.662;2023-07-08T04:54:18;3.95;;;3.58;;
31378;SDS011;61664;48.112;11.662;2023-07-08T04:56:46;3.33;;;3.03;;
31378;SDS011;61664;48.112;11.662;2023-07-08T04:59:16;4.07;;;3.77;;
31378;SDS011;61664;48.112;11.662;2023-07-08T05:01:46;3.63;;;3.33;;
31378;SDS011;61664;48.112;11.662;2023-07-08T05:04:16;4.22;;;3.47;;
31378;SDS011;61664;48.112;11.662;2023-07-08T05:06:45;3.92;;;3.53;;
31378;SDS011;61664;48.112;11.662;2023-07-08T05:09:13;3.97;;;3.58;;
31378;SDS011;61664;48.112;11.662;2023-07-08T05:11:43;4.53;;;3.63;;
31378;SDS011;61664;48.112;11.662;2023-07-08T05:14:11;5.00;;;3.50;;
31378;SDS011;61664;48.112;11.662;2023-07-08T05:16:39;5.85;;;4.32;;
31378;SDS011;61664;48.112;11.662;2023-07-08T05:19:07;4.60;;;3.90;;
31378;SDS011;61664;48.112;11.662;2023-07-08T05:21:34;3.55;;;3.25;;
31378;SDS011;61664;48.112;11.662;2023-07-08T05:24:02;4.50;;;3.72;;
31378;SDS011;61664;48.112;11.662;2023-07-08T05:26:30;4.93;;;4.25;;
31378;SDS011;61664;48.112;11.662;2023-07-08T05:28:58;4.57;;;4.18;;
31378;SDS011;61664;48.112;11.662;2023-07-08T05:31:26;3.58;;;3.28;;
31378;SDS011;61664;48.112;11.662;2023-07-08T05:34:12;4.18;;;3.78;;
31378;SDS011;61664;48.112;11.662;2023-07-08T05:36:39;5.07;;;3.67;;
31378;SDS011;61664;48.112;11.662;2023-07-08T05:39:06;5.18;;;4.68;;
31378;SDS011;61664;48.112;11.662;2023-07-08T05:41:33;5.70;;;4.38;;
31378;SDS011;61664;48.112;11.662;2023-07-08T05:44:00;3.95;;;3.65;;
31378;SDS011;61664;48.112;11.662;2023-07-08T05:46:27;4.72;;;4.32;;
31378;SDS011;61664;48.112;11.662;2023-07-08T05:48:54;4.32;;;3.92;;
31378;SDS011;61664;48.112;11.662;2023-07-08T05:51:22;4.57;;;4.18;;
31378;SDS011;61664;48.112;11.662;2023-07-08T05:53:49;5.13;;;4.57;;
31378;SDS011;61664;48.112;11.662;2023-07-08T05:56:16;4.60;;;4.20;;
31378;SDS011;61664;48.112;11.662;2023-07-08T05:58:43;4.70;;;4.20;;
31378;SDS011;61664;48.112;11.662;2023-07-08T06:01:09;5.72;;;4.60;;
31378;SDS011;61664;48.112;11.662;2023-07-08T06:03:37;5.50;;;4.53;;
31378;SDS011;61664;48.112;11.662;2023-07-08T06:06:04;4.70;;;4.30;;
31378;SDS011;61664;48.112;11.662;2023-07-08T06:08:34;4.22;;;3.83;;
31378;SDS011;61664;48.112;11.662;2023-07-08T06:11:01;4.18;;;3.65;;
31378;SDS011;61664;48.112;11.662;2023-07-08T06:13:28;4.65;;;4.25;;
31378;SDS011;61664;48.112;11.662;2023-07-08T06:15:56;6.38;;;4.22;;
31378;SDS011;61664;48.112;11.662;2023-07-08T06:18:22;4.65;;;4.15;;
31378;SDS011;61664;48.112;11.662;2023-07-08T06:20:57;5.50;;;4.93;;
31378;SDS011;61664;48.112;11.662;2023-07-08T06:23:25;5.40;;;4.82;;
31378;SDS011;61664;48.112;11.662;2023-07-08T06:25:52;5.65;;;4.60;;
31378;SDS011;61664;48.112;11.662;2023-07-08T06:28:20;4.72;;;4.28;;
31378;SDS011;61664;48.112;11.662;2023-07-08T06:30:48;4.40;;;3.75;;
31378;SDS011;61664;48.112;11.662;2023-07-08T06:33:15;5.05;;;4.55;;
31378;SDS011;61664;48.112;11.662;2023-07-08T06:35:43;4.88;;;3.58;;
31378;SDS011;61664;48.112;11.662;2023-07-08T06:38:10;4.88;;;4.22;;
31378;SDS011;61664;48.112;11.662;2023-07-08T06:40:38;4.53;;;4.13;;
31378;SDS011;61664;48.112;11.662;2023-07-08T06:43:05;6.13;;;3.95;;
31378;SDS011;61664;48.112;11.662;2023-07-08T06:45:32;4.80;;;4.30;;
31378;SDS011;61664;48.112;11.662;2023-07-08T06:47:59;4.43;;;4.03;;
31378;SDS011;61664;48.112;11.662;2023-07-08T06:50:26;5.45;;;4.32;;
31378;SDS011;61664;48.112;11.662;2023-07-08T06:52:54;4.82;;;4.43;;
31378;SDS011;61664;48.112;11.662;2023-07-08T06:55:20;7.75;;;4.47;;
31378;SDS011;61664;48.112;11.662;2023-07-08T06:57:47;5.30;;;4.80;;
31378;SDS011;61664;48.112;11.662;2023-07-08T07:00:14;4.97;;;4.13;;
31378;SDS011;61664;48.112;11.662;2023-07-08T07:02:41;6.90;;;4.25;;
31378;SDS011;61664;48.112;11.662;2023-07-08T07:05:09;5.03;;;4.63;;
31378;SDS011;61664;48.112;11.662;2023-07-08T07:07:36;4.95;;;4.30;;
31378;SDS011;61664;48.112;11.662;2023-07-08T07:10:04;5.47;;;4.60;;
31378;SDS011;61664;48.112;11.662;2023-07-08T07:12:32;4.60;;;4.20;;
31378;SDS011;61664;48.112;11.662;2023-07-08T07:14:59;4.47;;;4.07;;
31378;SDS011;61664;48.112;11.662;2023-07-08T07:17:26;4.20;;;3.80;;
31378;SDS011;61664;48.112;11.662;2023-07-08T07:19:53;4.78;;;4.28;;
31378;SDS011;61664;48.112;11.662;2023-07-08T07:22:21;4.75;;;4.32;;
31378;SDS011;61664;48.112;11.662;2023-07-08T07:24:48;4.95;;;4.47;;
31378;SDS011;61664;48.112;11.662;2023-07-08T07:27:15;4.35;;;3.95;;
31378;SDS011;61664;48.112;11.662;2023-07-08T07:29:43;4.55;;;4.15;;
31378;SDS011;61664;48.112;11.662;2023-07-08T07:32:14;4.60;;;4.20;;
31378;SDS011;61664;48.112;11.662;2023-07-08T07:34:42;4.53;;;3.97;;
31378;SDS011;61664;48.112;11.662;2023-07-08T07:37:13;3.88;;;3.58;;
31378;SDS011;61664;48.112;11.662;2023-07-08T07:39:43;4.53;;;4.13;;
31378;SDS011;61664;48.112;11.662;2023-07-08T07:42:10;4.43;;;4.03;;
31378;SDS011;61664;48.112;11.662;2023-07-08T07:44:42;4.32;;;3.92;;
31378;SDS011;61664;48.112;11.662;2023-07-08T07:47:09;4.40;;;4.00;;
31378;SDS011;61664;48.112;11.662;2023-07-08T07:49:37;3.97;;;3.58;;
31378;SDS011;61664;48.112;11.662;2023-07-08T07:52:05;5.10;;;4.18;;
31378;SDS011;61664;48.112;11.662;2023-07-08T07:54:33;6.65;;;4.60;;
31378;SDS011;61664;48.112;11.662;2023-07-08T07:57:00;4.90;;;4.40;;
31378;SDS011;61664;48.112;11.662;2023-07-08T07:59:27;6.00;;;4.78;;
31378;SDS011;61664;48.112;11.662;2023-07-08T08:01:54;5.20;;;4.70;;
31378;SDS011;61664;48.112;11.662;2023-07-08T08:04:21;4.55;;;3.97;;
31378;SDS011;61664;48.112;11.662;2023-07-08T08:06:48;4.57;;;4.20;;
31378;SDS011;61664;48.112;11.662;2023-07-08T08:09:15;6.07;;;5.47;;
31378;SDS011;61664;48.112;11.662;2023-07-08T08:11:42;4.60;;;4.25;;
31378;SDS011;61664;48.112;11.662;2023-07-08T08:14:09;6.57;;;5.57;;
31378;SDS011;61664;48.112;11.662;2023-07-08T08:16:36;5.50;;;5.00;;
31378;SDS011;61664;48.112;11.662;2023-07-08T08:19:03;4.45;;;4.05;;
31378;SDS011;61664;48.112;11.662;2023-07-08T08:21:34;5.03;;;4.40;;
31378;SDS011;61664;48.112;11.662;2023-07-08T08:24:00;4.47;;;4.10;;
31378;SDS011;61664;48.112;11.662;2023-07-08T08:26:28;7.20;;;4.68;;
31378;SDS011;61664;48.112;11.662;2023-07-08T08:28:55;4.85;;;4.40;;
31378;SDS011;61664;48.112;11.662;2023-07-08T08:31:22;5.43;;;4.90;;
31378;SDS011;61664;48.112;11.662;2023-07-08T08:33:52;5.03;;;4.30;;
31378;SDS011;61664;48.112;11.662;2023-07-08T08:36:20;7.25;;;4.85;;
31378;SDS011;61664;48.112;11.662;2023-07-08T08:38:47;5.35;;;4.85;;
31378;SDS011;61664;48.112;11.662;2023-07-08T08:41:19;4.82;;;4.32;;
31378;SDS011;61664;48.112;11.662;2023-07-08T08:43:58;4.22;;;3.85;;
31378;SDS011;61664;48.112;11.662;2023-07-08T08:49:30;5.20;;;4.43;;
31378;SDS011;61664;48.112;11.662;2023-07-08T08:52:07;6.20;;;4.10;;
31378;SDS011;61664;48.112;11.662;2023-07-08T08:54:34;4.82;;;4.32;;
31378;SDS011;61664;48.112;11.662;2023-07-08T09:00:04;4.38;;;3.70;;
31378;SDS011;61664;48.112;11.662;2023-07-08T09:05:27;5.93;;;4.15;;
31378;SDS011;61664;48.112;11.662;2023-07-08T09:10:52;6.43;;;4.13;;
31378;SDS011;61664;48.112;11.662;2023-07-08T09:13:31;4.35;;;3.90;;
31378;SDS011;61664;48.112;11.662;2023-07-08T09:16:06;5.10;;;4.60;;
31378;SDS011;61664;48.112;11.662;2023-07-08T09:19:06;4.07;;;3.78;;
31378;SDS011;61664;48.112;11.662;2023-07-08T09:22:14;4.22;;;3.92;;
31378;SDS011;61664;48.112;11.662;2023-07-08T09:24:49;6.65;;;4.78;;
31378;SDS011;61664;48.112;11.662;2023-07-08T09:27:33;5.57;;;3.95;;
31378;SDS011;61664;48.112;11.662;2023-07-08T09:30:00;6.15;;;4.88;;
31378;SDS011;61664;48.112;11.662;2023-07-08T09:32:27;5.78;;;4.65;;
31378;SDS011;61664;48.112;11.662;2023-07-08T09:35:02;4.43;;;4.03;;
31378;SDS011;61664;48.112;11.662;2023-07-08T09:37:34;3.75;;;3.22;;
31378;SDS011;61664;48.112;11.662;2023-07-08T09:40:14;4.43;;;4.03;;
31378;SDS011;61664;48.112;11.662;2023-07-08T09:42:49;3.95;;;3.58;;
31378;SDS011;61664;48.112;11.662;2023-07-08T09:45:21;4.63;;;4.22;;
31378;SDS011;61664;48.112;11.662;2023-07-08T09:47:57;4.03;;;3.65;;
31378;SDS011;61664;48.112;11.662;2023-07-08T09:50:28;3.70;;;3.35;;
31378;SDS011;61664;48.112;11.662;2023-07-08T09:53:00;4.60;;;4.20;;
31378;SDS011;61664;48.112;11.662;2023-07-08T09:55:27;3.63;;;3.35;;
31378;SDS011;61664;48.112;11.662;2023-07-08T09:57:55;5.68;;;3.72;;
31378;SDS011;61664;48.112;11.662;2023-07-08T10:00:32;4.00;;;3.60;;
31378;SDS011;61664;48.112;11.662;2023-07-08T10:03:08;3.78;;;3.47;;
31378;SDS011;61664;48.112;11.662;2023-07-08T10:08:15;3.65;;;3.35;;
31378;SDS011;61664;48.112;11.662;2023-07-08T10:10:57;3.90;;;3.60;;
31378;SDS011;61664;48.112;11.662;2023-07-08T10:16:37;4.05;;;3.50;;
31378;SDS011;61664;48.112;11.662;2023-07-08T10:19:09;3.13;;;2.92;;
31378;SDS011;61664;48.112;11.662;2023-07-08T10:30:20;4.03;;;3.75;;
31378;SDS011;61664;48.112;11.662;2023-07-08T10:33:05;3.50;;;3.22;;
31378;SDS011;61664;48.112;11.662;2023-07-08T10:42:18;3.28;;;3.08;;
31378;SDS011;61664;48.112;11.662;2023-07-08T10:44:36;3.50;;;3.30;;
31378;SDS011;61664;48.112;11.662;2023-07-08T10:56:15;3.05;;;2.85;;
31378;SDS011;61664;48.112;11.662;2023-07-08T11:02:18;2.78;;;2.38;;
31378;SDS011;61664;48.112;11.662;2023-07-08T11:07:53;2.85;;;2.63;;
31378;SDS011;61664;48.112;11.662;2023-07-08T11:10:40;3.05;;;2.72;;
31378;SDS011;61664;48.112;11.662;2023-07-08T11:13:45;3.92;;;3.63;;
31378;SDS011;61664;48.112;11.662;2023-07-08T11:16:26;2.83;;;2.63;;
31378;SDS011;61664;48.112;11.662;2023-07-08T11:19:25;3.13;;;2.92;;
31378;SDS011;61664;48.112;11.662;2023-07-08T11:22:02;3.60;;;3.30;;
31378;SDS011;61664;48.112;11.662;2023-07-08T11:27:26;4.38;;;2.20;;
31378;SDS011;61664;48.112;11.662;2023-07-08T11:30:11;2.83;;;2.67;;
31378;SDS011;61664;48.112;11.662;2023-07-08T11:32:48;2.85;;;2.65;;
31378;SDS011;61664;48.112;11.662;2023-07-08T11:35:37;3.10;;;2.90;;
31378;SDS011;61664;48.112;11.662;2023-07-08T11:38:14;4.00;;;2.88;;
31378;SDS011;61664;48.112;11.662;2023-07-08T11:43:42;2.67;;;2.47;;
31378;SDS011;61664;48.112;11.662;2023-07-08T11:46:21;3.47;;;2.55;;
31378;SDS011;61664;48.112;11.662;2023-07-08T11:49:05;2.92;;;2.72;;
31378;SDS011;61664;48.112;11.662;2023-07-08T11:51:41;3.47;;;3.28;;
31378;SDS011;61664;48.112;11.662;2023-07-08T11:54:13;3.17;;;2.88;;
31378;SDS011;61664;48.112;11.662;2023-07-08T11:59:24;3.47;;;3.25;;
31378;SDS011;61664;48.112;11.662;2023-07-08T12:02:03;3.20;;;3.00;;
31378;SDS011;61664;48.112;11.662;2023-07-08T12:07:30;3.92;;;3.63;;
31378;SDS011;61664;48.112;11.662;2023-07-08T12:10:22;3.92;;;3.63;;
31378;SDS011;61664;48.112;11.662;2023-07-08T12:13:05;3.00;;;2.80;;
31378;SDS011;61664;48.112;11.662;2023-07-08T12:15:46;3.78;;;3.47;;
31378;SDS011;61664;48.112;11.662;2023-07-08T12:18:19;3.90;;;3.60;;
31378;SDS011;61664;48.112;11.662;2023-07-08T12:23:25;3.42;;;3.13;;
31378;SDS011;61664;48.112;11.662;2023-07-08T12:25:54;2.85;;;2.65;;
31378;SDS011;61664;48.112;11.662;2023-07-08T12:28:24;3.20;;;3.00;;
31378;SDS011;61664;48.112;11.662;2023-07-08T12:30:51;3.60;;;3.28;;
31378;SDS011;61664;48.112;11.662;2023-07-08T12:33:25;3.33;;;3.10;;
31378;SDS011;61664;48.112;11.662;2023-07-08T12:36:01;3.10;;;2.88;;
31378;SDS011;61664;48.112;11.662;2023-07-08T12:38:35;3.38;;;3.17;;
31378;SDS011;61664;48.112;11.662;2023-07-08T12:41:11;3.15;;;2.95;;
31378;SDS011;61664;48.112;11.662;2023-07-08T12:43:42;3.05;;;2.85;;
31378;SDS011;61664;48.112;11.662;2023-07-08T12:46:11;3.35;;;2.95;;
31378;SDS011;61664;48.112;11.662;2023-07-08T12:48:40;3.10;;;2.90;;
31378;SDS011;61664;48.112;11.662;2023-07-08T12:51:11;3.25;;;3.05;;
31378;SDS011;61664;48.112;11.662;2023-07-08T12:53:42;3.00;;;2.80;;
31378;SDS011;61664;48.112;11.662;2023-07-08T12:56:10;3.42;;;3.10;;
31378;SDS011;61664;48.112;11.662;2023-07-08T12:58:39;3.80;;;3.50;;
31378;SDS011;61664;48.112;11.662;2023-07-08T13:01:10;3.20;;;3.00;;
31378;SDS011;61664;48.112;11.662;2023-07-08T13:03:45;3.42;;;3.15;;
31378;SDS011;61664;48.112;11.662;2023-07-08T13:06:18;3.53;;;3.22;;
31378;SDS011;61664;48.112;11.662;2023-07-08T13:08:49;3.22;;;3.03;;
31378;SDS011;61664;48.112;11.662;2023-07-08T13:11:18;3.03;;;2.83;;
31378;SDS011;61664;48.112;11.662;2023-07-08T13:13:50;3.25;;;3.05;;
31378;SDS011;61664;48.112;11.662;2023-07-08T13:16:26;3.15;;;2.95;;
31378;SDS011;61664;48.112;11.662;2023-07-08T13:19:00;3.28;;;3.08;;
31378;SDS011;61664;48.112;11.662;2023-07-08T13:21:28;3.22;;;3.03;;
31378;SDS011;61664;48.112;11.662;2023-07-08T13:23:57;3.27;;;2.97;;
31378;SDS011;61664;48.112;11.662;2023-07-08T13:26:26;3.03;;;2.83;;
31378;SDS011;61664;48.112;11.662;2023-07-08T13:29:15;3.17;;;2.97;;
31378;SDS011;61664;48.112;11.662;2023-07-08T13:31:48;3.38;;;3.08;;
31378;SDS011;61664;48.112;11.662;2023-07-08T13:34:23;3.00;;;2.80;;
31378;SDS011;61664;48.112;11.662;2023-07-08T13:36:51;3.10;;;2.85;;
31378;SDS011;61664;48.112;11.662;2023-07-08T13:39:31;2.85;;;2.65;;
31378;SDS011;61664;48.112;11.662;2023-07-08T13:42:01;3.13;;;2.13;;
31378;SDS011;61664;48.112;11.662;2023-07-08T13:44:28;3.00;;;2.70;;
31378;SDS011;61664;48.112;11.662;2023-07-08T13:46:56;3.10;;;2.80;;
31378;SDS011;61664;48.112;11.662;2023-07-08T13:49:28;2.88;;;2.67;;
31378;SDS011;61664;48.112;11.662;2023-07-08T13:54:59;2.92;;;2.72;;
31378;SDS011;61664;48.112;11.662;2023-07-08T13:57:37;2.72;;;2.53;;
31378;SDS011;61664;48.112;11.662;2023-07-08T14:00:05;2.70;;;2.50;;
31378;SDS011;61664;48.112;11.662;2023-07-08T14:02:34;3.20;;;3.00;;
31378;SDS011;61664;48.112;11.662;2023-07-08T14:05:02;2.65;;;2.45;;
31378;SDS011;61664;48.112;11.662;2023-07-08T14:07:32;2.97;;;2.78;;
31378;SDS011;61664;48.112;11.662;2023-07-08T14:09:59;3.20;;;2.85;;
31378;SDS011;61664;48.112;11.662;2023-07-08T14:12:26;2.38;;;2.17;;
31378;SDS011;61664;48.112;11.662;2023-07-08T14:14:53;2.97;;;2.78;;
31378;SDS011;61664;48.112;11.662;2023-07-08T14:17:21;2.67;;;2.50;;
31378;SDS011;61664;48.112;11.662;2023-07-08T14:19:51;2.90;;;2.70;;
31378;SDS011;61664;48.112;11.662;2023-07-08T14:22:23;2.03;;;1.92;;
31378;SDS011;61664;48.112;11.662;2023-07-08T14:24:55;2.97;;;2.78;;
31378;SDS011;61664;48.112;11.662;2023-07-08T14:27:28;2.85;;;2.65;;
31378;SDS011;61664;48.112;11.662;2023-07-08T14:29:55;2.60;;;2.50;;
31378;SDS011;61664;48.112;11.662;2023-07-08T14:32:23;2.85;;;2.70;;
31378;SDS011;61664;48.112;11.662;2023-07-08T14:35:01;4.28;;;2.70;;
31378;SDS011;61664;48.112;11.662;2023-07-08T14:37:36;2.58;;;2.38;;
31378;SDS011;61664;48.112;11.662;2023-07-08T14:43:16;2.63;;;2.45;;
31378;SDS011;61664;48.112;11.662;2023-07-08T14:45:49;2.60;;;2.50;;
31378;SDS011;61664;48.112;11.662;2023-07-08T14:48:19;2.70;;;2.50;;
31378;SDS011;61664;48.112;11.662;2023-07-08T14:50:46;2.33;;;2.15;;
31378;SDS011;61664;48.112;11.662;2023-07-08T14:53:14;3.33;;;3.13;;
31378;SDS011;61664;48.112;11.662;2023-07-08T14:55:43;3.42;;;3.22;;
31378;SDS011;61664;48.112;11.662;2023-07-08T14:58:26;3.08;;;2.88;;
31378;SDS011;61664;48.112;11.662;2023-07-08T15:00:59;2.90;;;2.50;;
31378;SDS011;61664;48.112;11.662;2023-07-08T15:03:44;2.42;;;2.33;;
31378;SDS011;61664;48.112;11.662;2023-07-08T15:06:11;2.83;;;2.72;;
31378;SDS011;61664;48.112;11.662;2023-07-08T15:08:38;3.05;;;2.85;;
31378;SDS011;61664;48.112;11.662;2023-07-08T15:11:08;2.88;;;2.67;;
31378;SDS011;61664;48.112;11.662;2023-07-08T15:13:38;3.20;;;2.92;;
31378;SDS011;61664;48.112;11.662;2023-07-08T15:16:07;2.72;;;2.55;;
31378;SDS011;61664;48.112;11.662;2023-07-08T15:18:42;3.10;;;2.90;;
31378;SDS011;61664;48.112;11.662;2023-07-08T15:21:13;3.17;;;2.83;;
31378;SDS011;61664;48.112;11.662;2023-07-08T15:23:41;3.03;;;2.83;;
31378;SDS011;61664;48.112;11.662;2023-07-08T15:26:09;3.58;;;3.28;;
31378;SDS011;61664;48.112;11.662;2023-07-08T15:31:15;2.88;;;2.67;;
31378;SDS011;61664;48.112;11.662;2023-07-08T15:33:46;2.95;;;2.75;;
31378;SDS011;61664;48.112;11.662;2023-07-08T15:36:13;2.60;;;2.50;;
31378;SDS011;61664;48.112;11.662;2023-07-08T15:38:40;3.03;;;2.70;;
31378;SDS011;61664;48.112;11.662;2023-07-08T15:41:28;2.75;;;2.55;;
31378;SDS011;61664;48.112;11.662;2023-07-08T15:43:56;2.53;;;2.33;;
31378;SDS011;61664;48.112;11.662;2023-07-08T15:46:28;2.35;;;2.25;;
31378;SDS011;61664;48.112;11.662;2023-07-08T15:49:01;3.45;;;2.17;;
31378;SDS011;61664;48.112;11.662;2023-07-08T15:51:39;2.58;;;2.47;;
31378;SDS011;61664;48.112;11.662;2023-07-08T15:54:06;2.22;;;2.13;;
31378;SDS011;61664;48.112;11.662;2023-07-08T15:56:33;2.50;;;2.35;;
31378;SDS011;61664;48.112;11.662;2023-07-08T15:58:59;2.78;;;2.58;;
31378;SDS011;61664;48.112;11.662;2023-07-08T16:01:27;2.67;;;2.47;;
31378;SDS011;61664;48.112;11.662;2023-07-08T16:03:54;2.42;;;2.33;;
31378;SDS011;61664;48.112;11.662;2023-07-08T16:06:21;2.45;;;2.35;;
31378;SDS011;61664;48.112;11.662;2023-07-08T16:08:48;2.72;;;2.53;;
31378;SDS011;61664;48.112;11.662;2023-07-08T16:11:16;3.20;;;3.00;;
31378;SDS011;61664;48.112;11.662;2023-07-08T16:13:55;3.10;;;2.90;;
31378;SDS011;61664;48.112;11.662;2023-07-08T16:16:23;3.50;;;3.20;;
31378;SDS011;61664;48.112;11.662;2023-07-08T16:18:51;3.10;;;2.80;;
31378;SDS011;61664;48.112;11.662;2023-07-08T16:21:18;3.50;;;3.30;;